createdAt,value
2019-05-21T00:00:56.560Z,981.09
2019-05-21T00:01:56.558Z,981.1
2019-05-21T00:02:56.559Z,981.05
2019-05-21T00:03:56.554Z,981.11
2019-05-21T00:04:56.551Z,981.06
2019-05-21T00:05:59.582Z,981.05
2019-05-21T00:06:56.545Z,981.13
2019-05-21T00:07:56.539Z,981.04
2019-05-21T00:08:56.540Z,981.13
2019-05-21T00:09:56.536Z,981.19
2019-05-21T00:10:56.533Z,981.14
2019-05-21T00:11:56.527Z,981.19
2019-05-21T00:12:56.526Z,981.19
2019-05-21T00:13:56.526Z,981.19
2019-05-21T00:14:56.523Z,981.21
2019-05-21T00:15:56.520Z,981.17
2019-05-21T00:16:56.521Z,981.19
2019-05-21T00:17:56.514Z,981.14
2019-05-21T00:18:56.515Z,981.15
2019-05-21T00:19:56.505Z,981.21
2019-05-21T00:20:56.502Z,981.04
2019-05-21T00:21:56.505Z,981.17
2019-05-21T00:22:56.497Z,981.24
2019-05-21T00:23:56.493Z,981.22
2019-05-21T00:24:56.500Z,981.2
2019-05-21T00:25:56.490Z,981.14
2019-05-21T00:26:56.489Z,981.21
2019-05-21T00:27:56.483Z,981.2
2019-05-21T00:28:56.483Z,981.21
2019-05-21T00:29:56.476Z,981.2
2019-05-21T00:30:56.474Z,981.16
2019-05-21T00:31:56.470Z,981.18
2019-05-21T00:32:56.473Z,981.21
2019-05-21T00:33:56.464Z,981.23
2019-05-21T00:34:56.462Z,981.2
2019-05-21T00:35:56.460Z,981.24
2019-05-21T00:36:56.487Z,981.21
2019-05-21T00:37:57.881Z,981.19
2019-05-21T00:38:56.454Z,981.17
2019-05-21T00:39:56.450Z,981.15
2019-05-21T00:40:56.453Z,981.14
2019-05-21T00:41:56.442Z,981.17
2019-05-21T00:42:56.439Z,981.16
2019-05-21T00:43:56.436Z,981.2
2019-05-21T00:44:56.431Z,981.17
2019-05-21T00:45:56.440Z,981.19
2019-05-21T00:46:56.430Z,981.16
2019-05-21T00:47:56.423Z,981.15
2019-05-21T00:48:59.452Z,981.16
2019-05-21T00:49:56.418Z,981.18
2019-05-21T00:50:56.419Z,981.15
2019-05-21T00:52:06.750Z,981.16
2019-05-21T00:52:56.410Z,981.14
2019-05-21T00:53:56.407Z,981.13
2019-05-21T00:54:56.405Z,981.08
2019-05-21T00:55:56.399Z,981.13
2019-05-21T00:56:56.410Z,981.16
2019-05-21T00:57:56.397Z,981.12
2019-05-21T00:58:56.391Z,981.16
2019-05-21T00:59:56.388Z,981.1
2019-05-21T01:00:56.385Z,981.11
2019-05-21T01:01:56.383Z,981.13
2019-05-21T01:02:56.382Z,981.15
2019-05-21T01:03:56.374Z,981.13
2019-05-21T01:05:00.541Z,981.15
2019-05-21T01:05:56.368Z,981.12
2019-05-21T01:06:56.371Z,981.17
2019-05-21T01:07:56.366Z,981.11
2019-05-21T01:08:56.365Z,981.11
2019-05-21T01:09:56.973Z,981.2
2019-05-21T01:10:56.365Z,981.13
2019-05-21T01:11:56.363Z,981.18
2019-05-21T01:12:56.365Z,981.16
2019-05-21T01:13:56.347Z,981.12
2019-05-21T01:14:56.344Z,981.16
2019-05-21T01:15:56.338Z,981.1
2019-05-21T01:16:56.334Z,981.12
2019-05-21T01:17:56.333Z,981.13
2019-05-21T01:18:56.329Z,981.14
2019-05-21T01:19:56.329Z,981.11
2019-05-21T01:20:59.354Z,981.1
2019-05-21T01:21:56.318Z,981.13
2019-05-21T01:22:56.322Z,981.14
2019-05-21T01:23:56.311Z,981.11
2019-05-21T01:24:56.314Z,981.17
2019-05-21T01:25:56.319Z,981.16
2019-05-21T01:26:56.317Z,981.19
2019-05-21T01:27:56.315Z,981.13
2019-05-21T01:28:56.315Z,981.19
2019-05-21T01:29:56.308Z,981.21
2019-05-21T01:30:56.290Z,981.15
2019-05-21T01:31:56.336Z,981.21
2019-05-21T01:32:56.281Z,981.15
2019-05-21T01:33:56.278Z,981.23
2019-05-21T01:34:56.289Z,981.27
2019-05-21T01:35:56.271Z,981.19
2019-05-21T01:36:56.316Z,981.26
2019-05-21T01:37:56.266Z,981.26
2019-05-21T01:38:56.267Z,981.19
2019-05-21T01:39:56.266Z,981.26
2019-05-21T01:40:56.254Z,981.2
2019-05-21T01:41:56.321Z,981.21
2019-05-21T01:42:56.246Z,981.27
2019-05-21T01:43:56.246Z,981.21
2019-05-21T01:44:56.242Z,981.24
2019-05-21T01:45:56.241Z,981.26
2019-05-21T01:46:56.283Z,981.28
2019-05-21T01:47:56.231Z,981.27
2019-05-21T01:48:56.227Z,981.31
2019-05-21T01:49:56.224Z,981.25
2019-05-21T01:50:56.221Z,981.3
2019-05-21T01:51:56.275Z,981.27
2019-05-21T01:52:57.639Z,981.24
2019-05-21T01:53:56.215Z,981.32
2019-05-21T01:54:56.209Z,981.33
2019-05-21T01:55:56.214Z,981.34
2019-05-21T01:56:56.257Z,981.37
2019-05-21T01:57:56.199Z,981.39
2019-05-21T01:58:56.196Z,981.38
2019-05-21T01:59:56.194Z,981.34
2019-05-21T02:00:56.188Z,981.37
2019-05-21T02:01:56.189Z,981.39
2019-05-21T02:02:56.183Z,981.37
2019-05-21T02:04:02.458Z,981.31
2019-05-21T02:04:56.176Z,981.29
2019-05-21T02:05:56.183Z,981.38
2019-05-21T02:06:56.183Z,981.33
2019-05-21T02:07:56.178Z,981.34
2019-05-21T02:08:56.163Z,981.35
2019-05-21T02:09:56.177Z,981.34
2019-05-21T02:10:56.157Z,981.35
2019-05-21T02:11:56.455Z,981.28
2019-05-21T02:12:56.158Z,981.29
2019-05-21T02:13:56.154Z,981.25
2019-05-21T02:14:56.143Z,981.3
2019-05-21T02:15:56.142Z,981.33
2019-05-21T02:16:56.137Z,981.28
2019-05-21T02:17:56.134Z,981.33
2019-05-21T02:18:56.126Z,981.23
2019-05-21T02:19:56.127Z,981.29
2019-05-21T02:20:56.150Z,981.32
2019-05-21T02:21:56.125Z,981.27
2019-05-21T02:22:56.126Z,981.24
2019-05-21T02:23:56.115Z,981.28
2019-05-21T02:24:56.712Z,981.29
2019-05-21T02:25:56.101Z,981.33
2019-05-21T02:26:56.100Z,981.37
2019-05-21T02:27:56.094Z,981.37
2019-05-21T02:28:56.091Z,981.37
2019-05-21T02:29:56.090Z,981.34
2019-05-21T02:30:56.753Z,981.37
2019-05-21T02:31:56.093Z,981.33
2019-05-21T02:32:56.078Z,981.36
2019-05-21T02:33:56.073Z,981.32
2019-05-21T02:34:56.079Z,981.35
2019-05-21T02:35:59.108Z,981.34
2019-05-21T02:36:56.085Z,981.31
2019-05-21T02:37:56.063Z,981.34
2019-05-21T02:38:56.055Z,981.32
2019-05-21T02:39:56.055Z,981.35
2019-05-21T02:40:56.057Z,981.32
2019-05-21T02:41:56.345Z,981.33
2019-05-21T02:42:56.041Z,981.36
2019-05-21T02:43:56.037Z,981.38
2019-05-21T02:44:56.033Z,981.32
2019-05-21T02:45:56.029Z,981.31
2019-05-21T02:46:56.030Z,981.34
2019-05-21T02:47:56.026Z,981.33
2019-05-21T02:48:56.022Z,981.33
2019-05-21T02:49:56.017Z,981.34
2019-05-21T02:50:56.013Z,981.36
2019-05-21T02:51:56.011Z,981.37
2019-05-21T02:52:56.006Z,981.34
2019-05-21T02:53:56.004Z,981.31
2019-05-21T02:54:56.009Z,981.3
2019-05-21T02:55:56.000Z,981.33
2019-05-21T02:56:56.003Z,981.38
2019-05-21T02:57:55.999Z,981.33
2019-05-21T02:58:56.001Z,981.42
2019-05-21T02:59:55.980Z,981.4
2019-05-21T03:00:55.977Z,981.37
2019-05-21T03:01:55.984Z,981.42
2019-05-21T03:02:55.972Z,981.41
2019-05-21T03:03:55.970Z,981.41
2019-05-21T03:04:55.963Z,981.4
2019-05-21T03:06:12.121Z,981.32
2019-05-21T03:06:55.958Z,981.39
2019-05-21T03:07:58.985Z,981.46
2019-05-21T03:08:55.951Z,981.44
2019-05-21T03:09:55.944Z,981.45
2019-05-21T03:10:55.942Z,981.49
2019-05-21T03:11:57.589Z,981.47
2019-05-21T03:12:55.950Z,981.47
2019-05-21T03:13:55.945Z,981.45
2019-05-21T03:14:55.927Z,981.53
2019-05-21T03:15:55.926Z,981.47
2019-05-21T03:16:55.923Z,981.46
2019-05-21T03:17:55.919Z,981.52
2019-05-21T03:19:02.183Z,981.52
2019-05-21T03:19:55.910Z,981.52
2019-05-21T03:20:55.909Z,981.58
2019-05-21T03:21:55.910Z,981.54
2019-05-21T03:22:55.908Z,981.51
2019-05-21T03:23:55.898Z,981.58
2019-05-21T03:24:55.891Z,981.5
2019-05-21T03:25:55.894Z,981.56
2019-05-21T03:26:55.888Z,981.59
2019-05-21T03:27:55.886Z,981.57
2019-05-21T03:28:55.879Z,981.62
2019-05-21T03:29:55.877Z,981.61
2019-05-21T03:30:55.884Z,981.6
2019-05-21T03:31:55.871Z,981.65
2019-05-21T03:32:55.870Z,981.61
2019-05-21T03:33:55.861Z,981.63
2019-05-21T03:34:55.856Z,981.62
2019-05-21T03:35:55.850Z,981.62
2019-05-21T03:36:55.865Z,981.66
2019-05-21T03:37:55.847Z,981.62
2019-05-21T03:38:55.844Z,981.69
2019-05-21T03:39:57.258Z,981.71
2019-05-21T03:40:55.836Z,981.65
2019-05-21T03:41:55.833Z,981.68
2019-05-21T03:42:55.832Z,981.65
2019-05-21T03:43:55.835Z,981.69
2019-05-21T03:45:00.082Z,981.67
2019-05-21T03:45:55.831Z,981.71
2019-05-21T03:46:55.816Z,981.67
2019-05-21T03:47:55.810Z,981.72
2019-05-21T03:48:55.810Z,981.72
2019-05-21T03:49:55.806Z,981.75
2019-05-21T03:50:58.838Z,981.74
2019-05-21T03:51:55.798Z,981.78
2019-05-21T03:52:55.798Z,981.76
2019-05-21T03:53:55.800Z,981.8
2019-05-21T03:54:55.875Z,981.68
2019-05-21T03:55:55.785Z,981.83
2019-05-21T03:56:55.798Z,981.86
2019-05-21T03:57:55.839Z,981.82
2019-05-21T03:58:55.774Z,981.86
2019-05-21T03:59:55.770Z,981.87
2019-05-21T04:00:55.776Z,981.76
2019-05-21T04:01:55.770Z,981.83
2019-05-21T04:02:55.759Z,981.84
2019-05-21T04:03:55.756Z,981.89
2019-05-21T04:04:55.754Z,981.85
2019-05-21T04:05:55.752Z,981.85
2019-05-21T04:06:55.762Z,981.9
2019-05-21T04:07:55.747Z,981.93
2019-05-21T04:08:55.741Z,981.86
2019-05-21T04:09:55.737Z,981.91
2019-05-21T04:10:55.735Z,981.92
2019-05-21T04:11:55.953Z,981.95
2019-05-21T04:12:56.026Z,981.89
2019-05-21T04:13:55.720Z,981.91
2019-05-21T04:14:55.718Z,981.91
2019-05-21T04:15:55.714Z,981.89
2019-05-21T04:16:55.718Z,981.85
2019-05-21T04:17:55.716Z,981.91
2019-05-21T04:18:55.706Z,981.9
2019-05-21T04:19:55.713Z,981.88
2019-05-21T04:20:55.702Z,981.88
2019-05-21T04:21:55.696Z,981.91
2019-05-21T04:22:58.097Z,981.98
2019-05-21T04:23:55.692Z,981.93
2019-05-21T04:24:55.693Z,981.93
2019-05-21T04:25:55.682Z,981.97
2019-05-21T04:26:55.680Z,981.95
2019-05-21T04:27:55.676Z,981.89
2019-05-21T04:28:55.676Z,981.91
2019-05-21T04:29:55.674Z,981.93
2019-05-21T04:30:55.665Z,981.98
2019-05-21T04:31:55.661Z,981.89
2019-05-21T04:32:55.658Z,981.95
2019-05-21T04:33:55.656Z,981.91
2019-05-21T04:34:55.660Z,981.92
2019-05-21T04:35:55.650Z,981.94
2019-05-21T04:37:09.243Z,981.95
2019-05-21T04:37:55.644Z,981.95
2019-05-21T04:38:55.638Z,981.91
2019-05-21T04:39:55.642Z,981.93
2019-05-21T04:40:55.629Z,982
2019-05-21T04:41:55.628Z,982.02
2019-05-21T04:42:55.633Z,982.01
2019-05-21T04:43:55.626Z,981.96
2019-05-21T04:44:55.618Z,982.03
2019-05-21T04:45:55.612Z,981.93
2019-05-21T04:46:55.613Z,981.99
2019-05-21T04:47:55.605Z,981.95
2019-05-21T04:48:55.603Z,982.01
2019-05-21T04:49:55.600Z,981.99
2019-05-21T04:50:55.597Z,981.97
2019-05-21T04:51:55.593Z,981.98
2019-05-21T04:52:55.587Z,982.01
2019-05-21T04:53:55.589Z,982
2019-05-21T04:54:57.006Z,982.02
2019-05-21T04:55:55.581Z,982
2019-05-21T04:56:55.576Z,982
2019-05-21T04:57:55.577Z,982
2019-05-21T04:58:55.571Z,982.01
2019-05-21T04:59:55.572Z,981.96
2019-05-21T05:00:55.577Z,981.97
2019-05-21T05:01:55.577Z,982.04
2019-05-21T05:02:55.572Z,982.03
2019-05-21T05:03:55.550Z,981.93
2019-05-21T05:04:55.547Z,982.13
2019-05-21T05:05:58.576Z,982.13
2019-05-21T05:06:55.539Z,982.15
2019-05-21T05:07:55.534Z,982.09
2019-05-21T05:08:55.533Z,982.13
2019-05-21T05:09:55.531Z,982.13
2019-05-21T05:10:55.527Z,982.15
2019-05-21T05:11:55.537Z,982.15
2019-05-21T05:12:55.518Z,982.22
2019-05-21T05:13:55.534Z,982.18
2019-05-21T05:14:55.515Z,982.19
2019-05-21T05:15:55.532Z,982.27
2019-05-21T05:16:55.531Z,982.21
2019-05-21T05:17:55.515Z,982.2
2019-05-21T05:18:55.495Z,982.18
2019-05-21T05:19:55.495Z,982.27
2019-05-21T05:20:55.494Z,982.26
2019-05-21T05:21:55.543Z,982.16
2019-05-21T05:22:55.480Z,982.22
2019-05-21T05:23:55.492Z,982.21
2019-05-21T05:24:55.480Z,982.16
2019-05-21T05:25:55.487Z,982.19
2019-05-21T05:26:56.077Z,982.21
2019-05-21T05:27:55.474Z,982.24
2019-05-21T05:28:55.496Z,982.24
2019-05-21T05:29:55.457Z,982.26
2019-05-21T05:30:55.453Z,982.22
2019-05-21T05:31:55.450Z,982.26
2019-05-21T05:32:55.447Z,982.22
2019-05-21T05:33:55.443Z,982.22
2019-05-21T05:34:55.438Z,982.25
2019-05-21T05:35:55.437Z,982.23
2019-05-21T05:36:55.434Z,982.24
2019-05-21T05:37:58.466Z,982.24
2019-05-21T05:38:55.424Z,982.2
2019-05-21T05:39:55.422Z,982.26
2019-05-21T05:40:55.423Z,982.19
2019-05-21T05:41:55.414Z,982.25
2019-05-21T05:42:55.415Z,982.23
2019-05-21T05:43:57.074Z,982.23
2019-05-21T05:44:55.407Z,982.24
2019-05-21T05:45:55.402Z,982.27
2019-05-21T05:46:55.398Z,982.23
2019-05-21T05:47:55.398Z,982.25
2019-05-21T05:48:55.397Z,982.23
2019-05-21T05:49:55.409Z,982.19
2019-05-21T05:50:55.390Z,982.17
2019-05-21T05:51:55.387Z,982.15
2019-05-21T05:52:55.377Z,982.11
2019-05-21T05:53:55.375Z,982.12
2019-05-21T05:54:55.369Z,982.12
2019-05-21T05:55:55.367Z,982.1
2019-05-21T05:56:55.373Z,982.16
2019-05-21T05:57:55.362Z,982.11
2019-05-21T05:58:55.358Z,982.21
2019-05-21T05:59:55.363Z,982.2
2019-05-21T06:00:55.371Z,982.15
2019-05-21T06:01:55.348Z,982.16
2019-05-21T06:02:55.342Z,982.15
2019-05-21T06:03:55.347Z,982.13
2019-05-21T06:04:55.352Z,982.11
2019-05-21T06:05:55.340Z,982.13
2019-05-21T06:06:55.338Z,982.13
2019-05-21T06:07:59.583Z,982.14
2019-05-21T06:08:55.323Z,982.19
2019-05-21T06:09:56.741Z,982.18
2019-05-21T06:10:55.318Z,982.23
2019-05-21T06:11:55.312Z,982.24
2019-05-21T06:12:55.320Z,982.2
2019-05-21T06:13:55.306Z,982.21
2019-05-21T06:14:55.306Z,982.17
2019-05-21T06:15:55.301Z,982.15
2019-05-21T06:16:55.365Z,982.17
2019-05-21T06:17:55.292Z,982.17
2019-05-21T06:18:55.289Z,982.12
2019-05-21T06:19:55.293Z,982.13
2019-05-21T06:21:01.561Z,982.15
2019-05-21T06:21:55.278Z,982.18
2019-05-21T06:22:55.278Z,982.17
2019-05-21T06:23:55.279Z,982.16
2019-05-21T06:24:55.267Z,982.21
2019-05-21T06:25:55.274Z,982.19
2019-05-21T06:26:55.269Z,982.2
2019-05-21T06:27:55.259Z,982.16
2019-05-21T06:28:55.253Z,982.21
2019-05-21T06:29:55.250Z,982.17
2019-05-21T06:30:55.248Z,982.21
2019-05-21T06:31:55.244Z,982.15
2019-05-21T06:32:55.252Z,982.2
2019-05-21T06:33:55.241Z,982.13
2019-05-21T06:34:55.233Z,982.14
2019-05-21T06:35:55.232Z,982.2
2019-05-21T06:36:55.227Z,982.16
2019-05-21T06:37:55.225Z,982.28
2019-05-21T06:38:55.222Z,982.21
2019-05-21T06:39:55.220Z,982.25
2019-05-21T06:40:55.219Z,982.23
2019-05-21T06:41:56.628Z,982.31
2019-05-21T06:42:55.207Z,982.33
2019-05-21T06:43:55.214Z,982.32
2019-05-21T06:44:55.201Z,982.28
2019-05-21T06:45:55.199Z,982.26
2019-05-21T06:46:55.194Z,982.24
2019-05-21T06:47:55.192Z,982.25
2019-05-21T06:48:55.190Z,982.26
2019-05-21T06:49:55.187Z,982.21
2019-05-21T06:50:55.181Z,982.15
2019-05-21T06:51:55.187Z,982.2
2019-05-21T06:52:58.209Z,982.18
2019-05-21T06:53:55.174Z,982.25
2019-05-21T06:54:55.170Z,982.25
2019-05-21T06:55:55.166Z,982.17
2019-05-21T06:56:55.162Z,982.12
2019-05-21T06:57:55.157Z,982.16
2019-05-21T06:58:55.154Z,982.16
2019-05-21T06:59:55.307Z,982.1
2019-05-21T07:00:55.153Z,982.07
2019-05-21T07:01:55.145Z,982.08
2019-05-21T07:02:55.145Z,982.11
2019-05-21T07:03:55.160Z,982.1
2019-05-21T07:04:55.145Z,982.13
2019-05-21T07:05:58.598Z,982.11
2019-05-21T07:06:55.133Z,982.14
2019-05-21T07:07:55.125Z,982.07
2019-05-21T07:08:55.124Z,982.16
2019-05-21T07:09:55.118Z,982.19
2019-05-21T07:10:55.117Z,982.17
2019-05-21T07:11:55.110Z,982.17
2019-05-21T07:12:55.111Z,982.26
2019-05-21T07:13:55.123Z,982.24
2019-05-21T07:14:55.403Z,982.28
2019-05-21T07:15:55.106Z,982.29
2019-05-21T07:16:55.113Z,982.27
2019-05-21T07:17:55.099Z,982.26
2019-05-21T07:18:55.094Z,982.24
2019-05-21T07:19:55.100Z,982.28
2019-05-21T07:20:55.083Z,982.23
2019-05-21T07:22:09.337Z,982.27
2019-05-21T07:22:55.116Z,982.25
2019-05-21T07:23:55.072Z,982.28
2019-05-21T07:24:57.492Z,982.26
2019-05-21T07:25:55.063Z,982.25
2019-05-21T07:26:55.064Z,982.32
2019-05-21T07:27:55.058Z,982.38
2019-05-21T07:28:56.346Z,982.4
2019-05-21T07:29:55.050Z,982.3
2019-05-21T07:30:55.052Z,982.27
2019-05-21T07:31:55.044Z,982.29
2019-05-21T07:32:55.274Z,982.29
2019-05-21T07:33:55.039Z,982.18
2019-05-21T07:34:55.044Z,982.28
2019-05-21T07:35:55.031Z,982.32
2019-05-21T07:36:55.032Z,982.3
2019-05-21T07:37:55.021Z,982.3
2019-05-21T07:38:55.022Z,982.23
2019-05-21T07:39:55.019Z,982.32
2019-05-21T07:40:55.013Z,982.2
2019-05-21T07:41:55.010Z,982.24
2019-05-21T07:42:55.005Z,982.3
2019-05-21T07:43:55.001Z,982.32
2019-05-21T07:44:55.007Z,982.36
2019-05-21T07:45:54.994Z,982.29
2019-05-21T07:46:54.992Z,982.21
2019-05-21T07:47:54.995Z,982.16
2019-05-21T07:48:54.988Z,982.19
2019-05-21T07:49:54.990Z,982.18
2019-05-21T07:50:54.975Z,982.15
2019-05-21T07:51:54.971Z,982.2
2019-05-21T07:52:54.976Z,982.26
2019-05-21T07:53:54.970Z,982.21
2019-05-21T07:54:54.964Z,982.14
2019-05-21T07:55:54.960Z,982.15
2019-05-21T07:56:56.428Z,982.17
2019-05-21T07:57:54.953Z,982.21
2019-05-21T07:58:54.958Z,982.3
2019-05-21T07:59:54.945Z,982.3
2019-05-21T08:00:54.942Z,982.28
2019-05-21T08:01:54.941Z,982.21
2019-05-21T08:02:54.938Z,982.17
2019-05-21T08:03:54.952Z,982.24
2019-05-21T08:04:54.929Z,982.31
2019-05-21T08:05:54.937Z,982.23
2019-05-21T08:06:54.925Z,982.2
2019-05-21T08:07:57.955Z,982.22
2019-05-21T08:09:11.293Z,982.26
2019-05-21T08:09:54.913Z,982.16
2019-05-21T08:10:54.913Z,982.16
2019-05-21T08:11:54.907Z,982.28
2019-05-21T08:12:54.905Z,982.2
2019-05-21T08:13:54.901Z,982.2
2019-05-21T08:14:54.900Z,982.2
2019-05-21T08:15:54.898Z,982.21
2019-05-21T08:16:54.895Z,982.16
2019-05-21T08:17:54.908Z,982.27
2019-05-21T08:18:54.888Z,982.3
2019-05-21T08:19:54.959Z,982.27
2019-05-21T08:20:54.880Z,982.36
2019-05-21T08:21:54.878Z,982.3
2019-05-21T08:22:54.878Z,982.23
2019-05-21T08:23:54.874Z,982.23
2019-05-21T08:24:54.872Z,982.3
2019-05-21T08:25:54.877Z,982.33
2019-05-21T08:26:54.936Z,982.4
2019-05-21T08:27:54.861Z,982.37
2019-05-21T08:28:55.060Z,982.29
2019-05-21T08:29:54.859Z,982.38
2019-05-21T08:30:54.906Z,982.33
2019-05-21T08:31:54.853Z,982.33
2019-05-21T08:32:54.848Z,982.35
2019-05-21T08:33:54.855Z,982.32
2019-05-21T08:34:54.843Z,982.34
2019-05-21T08:35:54.850Z,982.37
2019-05-21T08:36:54.836Z,982.36
2019-05-21T08:37:54.844Z,982.39
2019-05-21T08:38:54.831Z,982.51
2019-05-21T08:39:57.872Z,982.34
2019-05-21T08:40:54.822Z,982.36
2019-05-21T08:41:54.822Z,982.32
2019-05-21T08:42:54.837Z,982.34
2019-05-21T08:43:54.817Z,982.31
2019-05-21T08:44:54.811Z,982.26
2019-05-21T08:45:54.816Z,982.37
2019-05-21T08:46:54.807Z,982.39
2019-05-21T08:47:54.806Z,982.39
2019-05-21T08:48:54.800Z,982.35
2019-05-21T08:49:54.808Z,982.4
2019-05-21T08:50:54.795Z,982.42
2019-05-21T08:51:54.841Z,982.41
2019-05-21T08:52:54.797Z,982.49
2019-05-21T08:53:54.784Z,982.55
2019-05-21T08:54:56.340Z,982.48
2019-05-21T08:55:54.779Z,982.57
2019-05-21T08:56:54.777Z,982.57
2019-05-21T08:58:06.062Z,982.55
2019-05-21T09:00:14.253Z,982.58
2019-05-21T09:01:14.296Z,982.59
2019-05-21T09:02:14.247Z,982.61
2019-05-21T09:03:14.243Z,982.59
2019-05-21T09:04:14.239Z,982.65
2019-05-21T09:05:14.237Z,982.7
2019-05-21T09:06:14.236Z,982.7
2019-05-21T09:07:14.229Z,982.75
2019-05-21T09:08:14.230Z,982.66
2019-05-21T09:09:14.227Z,982.68
2019-05-21T09:10:14.230Z,982.65
2019-05-21T09:11:14.215Z,982.72
2019-05-21T09:12:14.213Z,982.76
2019-05-21T09:13:17.669Z,982.79
2019-05-21T09:14:14.206Z,982.79
2019-05-21T09:15:14.811Z,982.85
2019-05-21T09:16:14.203Z,982.86
2019-05-21T09:17:14.197Z,982.84
2019-05-21T09:18:14.195Z,982.85
2019-05-21T09:19:14.198Z,982.88
2019-05-21T09:20:14.197Z,982.91
2019-05-21T09:21:14.189Z,982.9
2019-05-21T09:22:14.187Z,982.88
2019-05-21T09:23:14.186Z,982.93
2019-05-21T09:24:14.186Z,982.91
2019-05-21T09:25:14.169Z,982.94
2019-05-21T09:26:16.632Z,982.91
2019-05-21T09:27:14.205Z,982.93
2019-05-21T09:28:14.162Z,982.93
2019-05-21T09:29:14.160Z,982.97
2019-05-21T09:30:14.168Z,982.97
2019-05-21T09:31:14.151Z,982.96
2019-05-21T09:32:14.148Z,983.01
2019-05-21T09:33:14.143Z,983.02
2019-05-21T09:34:14.142Z,983.09
2019-05-21T09:35:14.144Z,982.99
2019-05-21T09:36:14.143Z,983.05
2019-05-21T09:37:19.511Z,983.06
2019-05-21T09:38:14.147Z,983.13
2019-05-21T09:39:14.144Z,983.09
2019-05-21T09:40:14.134Z,983.12
2019-05-21T09:41:14.140Z,983.06
2019-05-21T09:42:14.143Z,983.05
2019-05-21T09:43:14.114Z,983.09
2019-05-21T09:44:14.107Z,983.05
2019-05-21T09:45:14.106Z,983.1
2019-05-21T09:46:14.104Z,983.13
2019-05-21T09:47:14.114Z,983.1
2019-05-21T09:48:14.139Z,983.13
2019-05-21T09:49:14.091Z,983.17
2019-05-21T09:50:14.091Z,983.11
2019-05-21T09:51:19.646Z,983.16
2019-05-21T09:52:14.097Z,983.13
2019-05-21T09:53:14.079Z,983.21
2019-05-21T09:54:14.082Z,983.13
2019-05-21T09:55:14.082Z,983.24
2019-05-21T09:56:14.075Z,983.23
2019-05-21T09:57:14.073Z,983.21
2019-05-21T09:58:15.506Z,983.31
2019-05-21T09:59:14.060Z,983.31
2019-05-21T10:00:14.058Z,983.34
2019-05-21T10:01:14.055Z,983.31
2019-05-21T10:02:14.050Z,983.35
2019-05-21T10:03:14.049Z,983.39
2019-05-21T10:04:14.062Z,983.4
2019-05-21T10:05:14.042Z,983.41
2019-05-21T10:06:14.042Z,983.36
2019-05-21T10:07:14.038Z,983.41
2019-05-21T10:08:14.034Z,983.41
2019-05-21T10:09:20.302Z,983.45
2019-05-21T10:10:14.067Z,983.43
2019-05-21T10:11:14.029Z,983.48
2019-05-21T10:12:14.090Z,983.47
2019-05-21T10:13:14.021Z,983.57
2019-05-21T10:14:14.016Z,983.51
2019-05-21T10:15:14.014Z,983.55
2019-05-21T10:16:14.013Z,983.62
2019-05-21T10:17:14.011Z,983.55
2019-05-21T10:18:14.009Z,983.56
2019-05-21T10:19:14.004Z,983.66
2019-05-21T10:20:14.008Z,983.61
2019-05-21T10:21:13.996Z,983.58
2019-05-21T10:22:13.996Z,983.63
2019-05-21T10:23:13.990Z,983.65
2019-05-21T10:24:13.990Z,983.68
2019-05-21T10:25:15.855Z,983.69
2019-05-21T10:26:13.984Z,983.71
2019-05-21T10:27:13.980Z,983.75
2019-05-21T10:28:13.983Z,983.74
2019-05-21T10:29:13.978Z,983.76
2019-05-21T10:30:14.578Z,983.74
2019-05-21T10:31:13.970Z,983.71
2019-05-21T10:32:14.020Z,983.77
2019-05-21T10:33:13.968Z,983.79
2019-05-21T10:34:13.966Z,983.76
2019-05-21T10:35:13.970Z,983.8
2019-05-21T10:36:13.960Z,983.82
2019-05-21T10:37:13.956Z,983.93
2019-05-21T10:38:13.952Z,983.89
2019-05-21T10:39:13.955Z,983.92
2019-05-21T10:40:13.952Z,983.92
2019-05-21T10:41:16.977Z,983.88
2019-05-21T10:42:13.944Z,983.94
2019-05-21T10:43:14.020Z,983.9
2019-05-21T10:44:13.938Z,983.94
2019-05-21T10:45:13.934Z,983.93
2019-05-21T10:46:13.936Z,983.96
2019-05-21T10:47:16.290Z,983.99
2019-05-21T10:48:14.025Z,983.98
2019-05-21T10:49:13.923Z,984
2019-05-21T10:50:13.925Z,984.04
2019-05-21T10:51:13.919Z,984
2019-05-21T10:52:13.919Z,984.01
2019-05-21T10:53:13.938Z,983.99
2019-05-21T10:54:13.912Z,984.02
2019-05-21T10:55:15.945Z,984.07
2019-05-21T10:56:13.904Z,983.96
2019-05-21T10:57:13.901Z,983.89
2019-05-21T10:58:13.900Z,984
2019-05-21T10:59:13.898Z,984.02
2019-05-21T11:00:13.940Z,984.01
2019-05-21T11:01:13.892Z,984.06
2019-05-21T11:02:13.891Z,984.1
2019-05-21T11:03:13.964Z,984.08
2019-05-21T11:04:13.886Z,984.12
2019-05-21T11:05:13.882Z,984.09
2019-05-21T11:06:13.884Z,984.13
2019-05-21T11:07:13.878Z,984.13
2019-05-21T11:08:23.306Z,984.21
2019-05-21T11:09:13.871Z,984.21
2019-05-21T11:10:14.288Z,984.19
2019-05-21T11:11:13.864Z,984.19
2019-05-21T11:12:13.864Z,984.24
2019-05-21T11:13:15.276Z,984.23
2019-05-21T11:14:13.861Z,984.24
2019-05-21T11:15:13.864Z,984.3
2019-05-21T11:16:13.868Z,984.29
2019-05-21T11:17:13.854Z,984.3
2019-05-21T11:18:13.849Z,984.31
2019-05-21T11:19:13.843Z,984.29
2019-05-21T11:20:13.844Z,984.35
2019-05-21T11:21:13.848Z,984.33
2019-05-21T11:22:13.846Z,984.4
2019-05-21T11:23:13.842Z,984.39
2019-05-21T11:24:20.111Z,984.38
2019-05-21T11:25:13.830Z,984.38
2019-05-21T11:26:13.832Z,984.39
2019-05-21T11:27:13.824Z,984.42
2019-05-21T11:28:13.826Z,984.35
2019-05-21T11:29:13.822Z,984.46
2019-05-21T11:30:13.821Z,984.47
2019-05-21T11:31:13.822Z,984.5
2019-05-21T11:32:13.817Z,984.53
2019-05-21T11:33:13.811Z,984.48
2019-05-21T11:34:13.845Z,984.49
2019-05-21T11:35:13.812Z,984.57
2019-05-21T11:36:13.801Z,984.54
2019-05-21T11:37:13.807Z,984.54
2019-05-21T11:38:13.837Z,984.54
2019-05-21T11:39:13.796Z,984.57
2019-05-21T11:40:13.906Z,984.59
2019-05-21T11:41:13.793Z,984.63
2019-05-21T11:42:13.787Z,984.61
2019-05-21T11:43:13.792Z,984.62
2019-05-21T11:44:13.787Z,984.63
2019-05-21T11:45:29.370Z,984.61
2019-05-21T11:46:13.779Z,984.61
2019-05-21T11:47:13.774Z,984.63
2019-05-21T11:48:14.633Z,984.64
2019-05-21T11:49:13.771Z,984.61
2019-05-21T11:50:13.770Z,984.6
2019-05-21T11:51:13.768Z,984.7
2019-05-21T11:52:13.770Z,984.67
2019-05-21T11:53:13.761Z,984.66
2019-05-21T11:54:13.755Z,984.71
2019-05-21T11:55:13.758Z,984.71
2019-05-21T11:56:16.787Z,984.73
2019-05-21T11:57:13.753Z,984.69
2019-05-21T11:58:13.749Z,984.71
2019-05-21T11:59:13.753Z,984.74
2019-05-21T12:00:13.751Z,984.71
2019-05-21T12:01:13.739Z,984.81
2019-05-21T12:02:13.735Z,984.73
2019-05-21T12:03:13.777Z,984.77
2019-05-21T12:04:13.734Z,984.8
2019-05-21T12:05:13.727Z,984.75
2019-05-21T12:06:13.728Z,984.84
2019-05-21T12:07:13.729Z,984.87
2019-05-21T12:08:13.722Z,984.87
2019-05-21T12:09:13.720Z,984.89
2019-05-21T12:10:13.720Z,984.84
2019-05-21T12:11:13.744Z,984.85
2019-05-21T12:12:13.713Z,984.93
2019-05-21T12:13:13.710Z,984.94
2019-05-21T12:14:13.722Z,985.01
2019-05-21T12:15:13.709Z,984.99
2019-05-21T12:16:13.706Z,984.97
2019-05-21T12:17:13.716Z,985.03
2019-05-21T12:18:13.710Z,984.98
2019-05-21T12:19:13.710Z,985.02
2019-05-21T12:20:13.697Z,985.03
2019-05-21T12:21:13.695Z,985.03
2019-05-21T12:22:13.693Z,984.99
2019-05-21T12:23:13.694Z,985.02
2019-05-21T12:24:13.687Z,985.06
2019-05-21T12:25:13.686Z,985.01
2019-05-21T12:26:13.684Z,985.02
2019-05-21T12:27:13.684Z,985.04
2019-05-21T12:28:16.714Z,985.06
2019-05-21T12:29:13.729Z,985.11
2019-05-21T12:30:13.675Z,985.15
2019-05-21T12:31:13.672Z,985.15
2019-05-21T12:32:13.670Z,985.14
2019-05-21T12:33:13.670Z,985.16